sensor_id;sensor_type;location;lat;lon;timestamp;pressure;altitude;pressure_sealevel;temperature;humidity
13800;BME280;6971;50.028;9.258;2023-07-08T00:04:45;99565.34;;;15.42;100.00
13800;BME280;6971;50.028;9.258;2023-07-08T00:09:45;99565.69;;;15.37;99.68
13800;BME280;6971;50.028;9.258;2023-07-08T00:14:46;99569.28;;;15.36;99.39
13800;BME280;6971;50.028;9.258;2023-07-08T00:19:47;99561.56;;;15.33;98.15
13800;BME280;6971;50.028;9.258;2023-07-08T00:24:47;99558.56;;;15.38;95.67
13800;BME280;6971;50.028;9.258;2023-07-08T00:29:48;99541.91;;;15.36;95.37
13800;BME280;6971;50.028;9.258;2023-07-08T00:34:48;99534.50;;;15.15;97.38
13800;BME280;6971;50.028;9.258;2023-07-08T00:39:48;99532.88;;;15.25;95.81
13800;BME280;6971;50.028;9.258;2023-07-08T00:44:49;99534.31;;;15.05;96.31
13800;BME280;6971;50.028;9.258;2023-07-08T00:49:56;99526.25;;;15.07;97.42
13800;BME280;6971;50.028;9.258;2023-07-08T00:55:01;99533.59;;;15.03;99.36
13800;BME280;6971;50.028;9.258;2023-07-08T01:00:09;99544.31;;;15.01;98.34
13800;BME280;6971;50.028;9.258;2023-07-08T01:05:19;99537.00;;;14.92;98.26
13800;BME280;6971;50.028;9.258;2023-07-08T01:10:32;99539.66;;;14.79;96.67
13800;BME280;6971;50.028;9.258;2023-07-08T01:15:39;99531.69;;;14.79;98.08
13800;BME280;6971;50.028;9.258;2023-07-08T01:20:40;99535.81;;;14.70;97.09
13800;BME280;6971;50.028;9.258;2023-07-08T01:25:41;99530.09;;;14.64;100.00
13800;BME280;6971;50.028;9.258;2023-07-08T01:30:44;99535.41;;;14.64;99.64
13800;BME280;6971;50.028;9.258;2023-07-08T01:35:45;99534.78;;;14.60;100.00
13800;BME280;6971;50.028;9.258;2023-07-08T01:40:53;99540.25;;;14.44;100.00
13800;BME280;6971;50.028;9.258;2023-07-08T01:45:54;99544.97;;;14.53;100.00
13800;BME280;6971;50.028;9.258;2023-07-08T01:51:00;99541.56;;;14.38;99.21
13800;BME280;6971;50.028;9.258;2023-07-08T01:56:04;99531.59;;;14.42;100.00
13800;BME280;6971;50.028;9.258;2023-07-08T02:01:05;99521.84;;;14.42;98.15
13800;BME280;6971;50.028;9.258;2023-07-08T02:06:08;99517.56;;;14.27;100.00
13800;BME280;6971;50.028;9.258;2023-07-08T02:11:09;99519.69;;;14.21;100.00
13800;BME280;6971;50.028;9.258;2023-07-08T02:16:09;99520.66;;;14.20;100.00
13800;BME280;6971;50.028;9.258;2023-07-08T02:21:09;99527.84;;;14.18;100.00
13800;BME280;6971;50.028;9.258;2023-07-08T02:26:10;99535.88;;;14.17;100.00
13800;BME280;6971;50.028;9.258;2023-07-08T02:31:10;99531.72;;;14.00;100.00
13800;BME280;6971;50.028;9.258;2023-07-08T02:36:11;99521.31;;;13.96;100.00
13800;BME280;6971;50.028;9.258;2023-07-08T02:41:11;99517.41;;;13.89;100.00
13800;BME280;6971;50.028;9.258;2023-07-08T02:46:12;99517.28;;;13.91;100.00
13800;BME280;6971;50.028;9.258;2023-07-08T02:51:12;99512.84;;;13.91;100.00
13800;BME280;6971;50.028;9.258;2023-07-08T02:56:12;99524.75;;;13.99;100.00
13800;BME280;6971;50.028;9.258;2023-07-08T03:01:13;99525.50;;;13.73;100.00
13800;BME280;6971;50.028;9.258;2023-07-08T03:06:17;99530.78;;;13.73;100.00
13800;BME280;6971;50.028;9.258;2023-07-08T03:11:17;99535.06;;;13.76;100.00
13800;BME280;6971;50.028;9.258;2023-07-08T03:16:18;99543.94;;;13.75;100.00
13800;BME280;6971;50.028;9.258;2023-07-08T03:21:19;99555.94;;;13.80;100.00
13800;BME280;6971;50.028;9.258;2023-07-08T03:26:22;99548.31;;;13.76;100.00
13800;BME280;6971;50.028;9.258;2023-07-08T03:31:23;99562.78;;;13.70;100.00
13800;BME280;6971;50.028;9.258;2023-07-08T03:36:26;99563.84;;;13.67;100.00
13800;BME280;6971;50.028;9.258;2023-07-08T03:41:26;99568.78;;;13.59;100.00
13800;BME280;6971;50.028;9.258;2023-07-08T03:46:26;99575.50;;;13.65;100.00
13800;BME280;6971;50.028;9.258;2023-07-08T03:51:29;99572.25;;;13.74;100.00
13800;BME280;6971;50.028;9.258;2023-07-08T03:56:31;99569.63;;;13.87;100.00
13800;BME280;6971;50.028;9.258;2023-07-08T04:01:32;99573.16;;;14.01;100.00
13800;BME280;6971;50.028;9.258;2023-07-08T04:06:32;99573.50;;;14.09;100.00
13800;BME280;6971;50.028;9.258;2023-07-08T04:11:34;99566.09;;;14.14;100.00
13800;BME280;6971;50.028;9.258;2023-07-08T04:16:48;99562.09;;;14.34;99.59
13800;BME280;6971;50.028;9.258;2023-07-08T04:21:51;99558.94;;;14.42;97.87
13800;BME280;6971;50.028;9.258;2023-07-08T04:26:51;99563.19;;;14.58;96.37
13800;BME280;6971;50.028;9.258;2023-07-08T04:31:52;99559.16;;;14.65;98.10
13800;BME280;6971;50.028;9.258;2023-07-08T04:36:52;99562.44;;;14.69;98.49
13800;BME280;6971;50.028;9.258;2023-07-08T04:41:53;99567.03;;;14.80;97.05
13800;BME280;6971;50.028;9.258;2023-07-08T04:46:57;99569.16;;;15.00;95.50
13800;BME280;6971;50.028;9.258;2023-07-08T04:51:58;99574.22;;;15.17;93.50
13800;BME280;6971;50.028;9.258;2023-07-08T04:56:59;99581.38;;;15.40;89.23
13800;BME280;6971;50.028;9.258;2023-07-08T05:02:00;99583.66;;;15.58;86.76
13800;BME280;6971;50.028;9.258;2023-07-08T05:07:00;99577.34;;;15.72;86.55
13800;BME280;6971;50.028;9.258;2023-07-08T05:12:01;99578.88;;;15.88;85.11
13800;BME280;6971;50.028;9.258;2023-07-08T05:17:01;99586.25;;;16.09;83.12
13800;BME280;6971;50.028;9.258;2023-07-08T05:22:01;99590.09;;;16.40;79.00
13800;BME280;6971;50.028;9.258;2023-07-08T05:27:03;99589.03;;;16.54;79.48
13800;BME280;6971;50.028;9.258;2023-07-08T05:32:07;99594.16;;;16.69;77.03
13800;BME280;6971;50.028;9.258;2023-07-08T05:37:07;99597.69;;;16.81;78.96
13800;BME280;6971;50.028;9.258;2023-07-08T05:42:07;99604.16;;;17.13;78.05
13800;BME280;6971;50.028;9.258;2023-07-08T05:47:08;99601.94;;;17.41;75.09
13800;BME280;6971;50.028;9.258;2023-07-08T05:52:08;99585.91;;;17.64;73.94
13800;BME280;6971;50.028;9.258;2023-07-08T05:57:11;99578.84;;;18.18;66.05
13800;BME280;6971;50.028;9.258;2023-07-08T06:02:12;99576.56;;;18.13;70.14
13800;BME280;6971;50.028;9.258;2023-07-08T06:07:13;99565.66;;;18.38;68.14
13800;BME280;6971;50.028;9.258;2023-07-08T06:12:13;99567.41;;;18.49;66.48
13800;BME280;6971;50.028;9.258;2023-07-08T06:17:14;99571.78;;;18.81;64.51
13800;BME280;6971;50.028;9.258;2023-07-08T06:22:15;99584.03;;;19.05;62.58
13800;BME280;6971;50.028;9.258;2023-07-08T06:27:15;99582.84;;;20.00;56.38
13800;BME280;6971;50.028;9.258;2023-07-08T06:32:15;99590.19;;;20.85;50.64
13800;BME280;6971;50.028;9.258;2023-07-08T06:37:16;99600.13;;;21.12;50.31
13800;BME280;6971;50.028;9.258;2023-07-08T06:42:16;99596.22;;;21.35;49.85
13800;BME280;6971;50.028;9.258;2023-07-08T06:47:21;99597.28;;;21.24;51.03
13800;BME280;6971;50.028;9.258;2023-07-08T06:52:21;99592.66;;;21.44;49.81
13800;BME280;6971;50.028;9.258;2023-07-08T06:57:21;99606.13;;;21.81;48.63
13800;BME280;6971;50.028;9.258;2023-07-08T07:02:22;99612.69;;;21.96;48.70
13800;BME280;6971;50.028;9.258;2023-07-08T07:07:25;99623.63;;;22.21;48.05
13800;BME280;6971;50.028;9.258;2023-07-08T07:12:26;99625.53;;;22.29;48.23
13800;BME280;6971;50.028;9.258;2023-07-08T07:17:27;99635.97;;;21.96;51.56
13800;BME280;6971;50.028;9.258;2023-07-08T07:22:28;99641.09;;;22.07;49.69
13800;BME280;6971;50.028;9.258;2023-07-08T07:27:28;99645.78;;;22.05;52.32
13800;BME280;6971;50.028;9.258;2023-07-08T07:32:29;99644.16;;;22.49;49.79
13800;BME280;6971;50.028;9.258;2023-07-08T07:37:32;99635.16;;;22.76;48.50
13800;BME280;6971;50.028;9.258;2023-07-08T07:42:32;99655.69;;;23.39;47.69
13800;BME280;6971;50.028;9.258;2023-07-08T07:47:33;99654.50;;;23.84;45.72
13800;BME280;6971;50.028;9.258;2023-07-08T07:52:34;99666.81;;;23.95;44.74
13800;BME280;6971;50.028;9.258;2023-07-08T07:57:34;99662.22;;;23.79;47.62
13800;BME280;6971;50.028;9.258;2023-07-08T08:02:35;99676.69;;;23.78;45.69
13800;BME280;6971;50.028;9.258;2023-07-08T08:07:35;99656.97;;;23.69;48.58
13800;BME280;6971;50.028;9.258;2023-07-08T08:12:38;99674.72;;;23.97;46.44
13800;BME280;6971;50.028;9.258;2023-07-08T08:17:39;99660.22;;;23.90;52.47
13800;BME280;6971;50.028;9.258;2023-07-08T08:22:39;99656.28;;;24.44;46.71
13800;BME280;6971;50.028;9.258;2023-07-08T08:27:39;99665.03;;;24.71;46.67
13800;BME280;6971;50.028;9.258;2023-07-08T08:32:40;99673.78;;;26.50;43.63
13800;BME280;6971;50.028;9.258;2023-07-08T08:37:40;99669.59;;;26.47;42.13
13800;BME280;6971;50.028;9.258;2023-07-08T08:42:44;99686.38;;;25.79;43.31
13800;BME280;6971;50.028;9.258;2023-07-08T08:47:54;99693.84;;;26.00;44.40
13800;BME280;6971;50.028;9.258;2023-07-08T08:52:59;99687.78;;;25.58;50.07
13800;BME280;6971;50.028;9.258;2023-07-08T09:08:31;99690.91;;;25.30;50.22
13800;BME280;6971;50.028;9.258;2023-07-08T09:13:33;99707.38;;;25.60;45.58
13800;BME280;6971;50.028;9.258;2023-07-08T09:18:50;99697.72;;;27.97;41.12
13800;BME280;6971;50.028;9.258;2023-07-08T09:23:58;99696.97;;;29.19;37.21
13800;BME280;6971;50.028;9.258;2023-07-08T09:29:00;99691.94;;;30.00;36.35
13800;BME280;6971;50.028;9.258;2023-07-08T09:34:19;99686.72;;;29.50;34.72
13800;BME280;6971;50.028;9.258;2023-07-08T09:39:20;99684.94;;;30.67;35.50
13800;BME280;6971;50.028;9.258;2023-07-08T09:44:26;99700.44;;;30.93;32.19
13800;BME280;6971;50.028;9.258;2023-07-08T09:49:34;99705.00;;;31.20;32.65
13800;BME280;6971;50.028;9.258;2023-07-08T09:54:35;99711.47;;;31.32;31.51
13800;BME280;6971;50.028;9.258;2023-07-08T09:59:43;99697.22;;;31.44;32.13
13800;BME280;6971;50.028;9.258;2023-07-08T10:04:46;99701.59;;;31.45;31.03
13800;BME280;6971;50.028;9.258;2023-07-08T10:09:50;99698.09;;;31.37;30.37
13800;BME280;6971;50.028;9.258;2023-07-08T10:14:59;99688.69;;;30.45;31.73
13800;BME280;6971;50.028;9.258;2023-07-08T10:20:01;99686.63;;;30.88;31.16
13800;BME280;6971;50.028;9.258;2023-07-08T10:25:26;99687.81;;;31.26;31.14
13800;BME280;6971;50.028;9.258;2023-07-08T10:30:35;99686.19;;;31.11;31.34
13800;BME280;6971;50.028;9.258;2023-07-08T10:35:44;99682.13;;;31.48;30.01
13800;BME280;6971;50.028;9.258;2023-07-08T10:40:54;99671.78;;;31.63;29.48
13800;BME280;6971;50.028;9.258;2023-07-08T10:57:24;99664.75;;;32.59;28.23
13800;BME280;6971;50.028;9.258;2023-07-08T11:08:01;99658.59;;;33.45;25.63
13800;BME280;6971;50.028;9.258;2023-07-08T11:13:07;99657.53;;;32.90;26.50
13800;BME280;6971;50.028;9.258;2023-07-08T11:18:58;99645.44;;;33.61;26.20
13800;BME280;6971;50.028;9.258;2023-07-08T11:24:15;99646.06;;;34.06;24.68
13800;BME280;6971;50.028;9.258;2023-07-08T11:29:22;99647.63;;;34.92;25.12
13800;BME280;6971;50.028;9.258;2023-07-08T11:34:25;99646.41;;;35.12;23.51
13800;BME280;6971;50.028;9.258;2023-07-08T11:39:33;99648.22;;;34.94;23.68
13800;BME280;6971;50.028;9.258;2023-07-08T11:44:42;99638.19;;;35.24;22.92
13800;BME280;6971;50.028;9.258;2023-07-08T11:49:45;99642.38;;;34.67;23.48
13800;BME280;6971;50.028;9.258;2023-07-08T11:54:48;99626.34;;;33.05;25.13
13800;BME280;6971;50.028;9.258;2023-07-08T12:00:18;99632.84;;;34.57;24.05
13800;BME280;6971;50.028;9.258;2023-07-08T12:05:32;99622.84;;;35.11;22.89
13800;BME280;6971;50.028;9.258;2023-07-08T12:10:37;99619.75;;;34.95;22.98
13800;BME280;6971;50.028;9.258;2023-07-08T12:15:38;99613.38;;;34.78;23.92
13800;BME280;6971;50.028;9.258;2023-07-08T12:20:40;99616.72;;;34.80;22.60
13800;BME280;6971;50.028;9.258;2023-07-08T12:25:41;99612.28;;;33.88;24.01
13800;BME280;6971;50.028;9.258;2023-07-08T12:30:43;99610.53;;;34.72;23.47
13800;BME280;6971;50.028;9.258;2023-07-08T12:35:45;99609.69;;;34.72;22.82
13800;BME280;6971;50.028;9.258;2023-07-08T12:40:45;99604.31;;;34.65;22.91
13800;BME280;6971;50.028;9.258;2023-07-08T12:45:46;99603.03;;;33.58;23.72
13800;BME280;6971;50.028;9.258;2023-07-08T12:50:46;99593.72;;;33.29;23.89
13800;BME280;6971;50.028;9.258;2023-07-08T12:55:52;99599.28;;;33.53;24.77
13800;BME280;6971;50.028;9.258;2023-07-08T13:00:55;99597.66;;;33.14;24.01
13800;BME280;6971;50.028;9.258;2023-07-08T13:05:57;99594.63;;;33.23;24.15
13800;BME280;6971;50.028;9.258;2023-07-08T13:11:01;99599.47;;;34.01;23.72
13800;BME280;6971;50.028;9.258;2023-07-08T13:16:04;99595.88;;;33.88;23.75
13800;BME280;6971;50.028;9.258;2023-07-08T13:21:06;99589.63;;;33.69;23.31
13800;BME280;6971;50.028;9.258;2023-07-08T13:26:21;99586.78;;;33.64;24.02
13800;BME280;6971;50.028;9.258;2023-07-08T13:31:22;99576.78;;;33.57;24.89
13800;BME280;6971;50.028;9.258;2023-07-08T13:36:35;99585.16;;;33.75;23.94
13800;BME280;6971;50.028;9.258;2023-07-08T13:41:36;99590.03;;;33.72;25.03
13800;BME280;6971;50.028;9.258;2023-07-08T13:51:44;99576.25;;;33.49;25.05
13800;BME280;6971;50.028;9.258;2023-07-08T13:56:46;99577.69;;;33.02;25.08
13800;BME280;6971;50.028;9.258;2023-07-08T14:01:48;99586.00;;;33.75;24.96
13800;BME280;6971;50.028;9.258;2023-07-08T14:06:51;99585.59;;;33.71;24.88
13800;BME280;6971;50.028;9.258;2023-07-08T14:11:52;99569.72;;;32.56;25.63
13800;BME280;6971;50.028;9.258;2023-07-08T14:16:53;99568.19;;;32.41;25.97
13800;BME280;6971;50.028;9.258;2023-07-08T14:21:57;99563.75;;;33.10;25.42
13800;BME280;6971;50.028;9.258;2023-07-08T14:26:57;99557.00;;;33.43;25.44
13800;BME280;6971;50.028;9.258;2023-07-08T14:31:58;99575.69;;;33.28;23.74
13800;BME280;6971;50.028;9.258;2023-07-08T14:36:58;99564.41;;;33.05;23.99
13800;BME280;6971;50.028;9.258;2023-07-08T14:41:58;99559.81;;;33.37;23.69
13800;BME280;6971;50.028;9.258;2023-07-08T14:46:59;99566.53;;;33.53;24.18
13800;BME280;6971;50.028;9.258;2023-07-08T14:51:59;99558.03;;;33.61;24.31
13800;BME280;6971;50.028;9.258;2023-07-08T14:57:00;99554.34;;;33.37;24.69
13800;BME280;6971;50.028;9.258;2023-07-08T15:02:17;99550.53;;;33.56;24.87
13800;BME280;6971;50.028;9.258;2023-07-08T15:07:19;99549.06;;;33.72;24.98
13800;BME280;6971;50.028;9.258;2023-07-08T15:12:19;99547.56;;;33.58;25.13
13800;BME280;6971;50.028;9.258;2023-07-08T15:17:19;99547.56;;;33.58;25.29
13800;BME280;6971;50.028;9.258;2023-07-08T15:22:20;99551.63;;;33.67;25.03
13800;BME280;6971;50.028;9.258;2023-07-08T15:27:21;99551.25;;;33.94;25.08
13800;BME280;6971;50.028;9.258;2023-07-08T15:32:22;99547.63;;;33.82;24.09
13800;BME280;6971;50.028;9.258;2023-07-08T15:37:22;99541.94;;;33.53;24.88
13800;BME280;6971;50.028;9.258;2023-07-08T15:42:23;99539.00;;;33.24;25.52
13800;BME280;6971;50.028;9.258;2023-07-08T15:47:23;99535.50;;;33.16;26.25
13800;BME280;6971;50.028;9.258;2023-07-08T15:52:23;99530.44;;;33.01;24.65
13800;BME280;6971;50.028;9.258;2023-07-08T15:57:24;99526.38;;;33.41;25.86
13800;BME280;6971;50.028;9.258;2023-07-08T16:02:28;99525.16;;;33.37;26.18
13800;BME280;6971;50.028;9.258;2023-07-08T16:07:30;99530.13;;;33.40;26.15
13800;BME280;6971;50.028;9.258;2023-07-08T16:12:30;99529.63;;;32.38;26.88
13800;BME280;6971;50.028;9.258;2023-07-08T16:17:36;99527.78;;;32.32;27.88
13800;BME280;6971;50.028;9.258;2023-07-08T16:22:37;99527.53;;;32.59;26.77
13800;BME280;6971;50.028;9.258;2023-07-08T16:27:37;99527.47;;;32.65;26.78
13800;BME280;6971;50.028;9.258;2023-07-08T16:32:38;99531.41;;;32.51;27.73
13800;BME280;6971;50.028;9.258;2023-07-08T16:37:38;99523.06;;;32.01;30.99
13800;BME280;6971;50.028;9.258;2023-07-08T16:42:39;99519.03;;;32.04;29.56
13800;BME280;6971;50.028;9.258;2023-07-08T16:47:40;99520.44;;;32.32;28.83
13800;BME280;6971;50.028;9.258;2023-07-08T16:52:41;99523.28;;;32.44;28.64
13800;BME280;6971;50.028;9.258;2023-07-08T16:57:42;99522.19;;;32.26;28.26
13800;BME280;6971;50.028;9.258;2023-07-08T17:02:43;99519.78;;;32.11;29.13
13800;BME280;6971;50.028;9.258;2023-07-08T17:07:44;99515.59;;;31.90;31.38
13800;BME280;6971;50.028;9.258;2023-07-08T17:12:45;99523.03;;;31.37;32.66
13800;BME280;6971;50.028;9.258;2023-07-08T17:17:51;99519.47;;;31.36;35.33
13800;BME280;6971;50.028;9.258;2023-07-08T17:22:53;99513.50;;;30.34;40.96
13800;BME280;6971;50.028;9.258;2023-07-08T17:27:54;99513.94;;;30.04;41.98
13800;BME280;6971;50.028;9.258;2023-07-08T17:32:55;99523.50;;;29.66;43.49
13800;BME280;6971;50.028;9.258;2023-07-08T17:37:57;99519.72;;;29.54;45.46
13800;BME280;6971;50.028;9.258;2023-07-08T17:42:57;99523.84;;;29.36;46.11
13800;BME280;6971;50.028;9.258;2023-07-08T17:47:57;99524.53;;;29.03;48.43
13800;BME280;6971;50.028;9.258;2023-07-08T17:52:58;99523.63;;;28.89;49.66
13800;BME280;6971;50.028;9.258;2023-07-08T17:57:58;99534.03;;;28.85;50.26
13800;BME280;6971;50.028;9.258;2023-07-08T18:02:59;99526.91;;;28.77;51.86
13800;BME280;6971;50.028;9.258;2023-07-08T18:07:59;99544.47;;;28.88;51.08
13800;BME280;6971;50.028;9.258;2023-07-08T18:13:00;99539.81;;;29.11;50.97
13800;BME280;6971;50.028;9.258;2023-07-08T18:18:03;99542.19;;;28.57;54.61
13800;BME280;6971;50.028;9.258;2023-07-08T18:23:11;99536.69;;;27.93;55.84
13800;BME280;6971;50.028;9.258;2023-07-08T18:28:14;99538.63;;;27.99;56.92
13800;BME280;6971;50.028;9.258;2023-07-08T18:33:16;99544.31;;;27.45;60.37
13800;BME280;6971;50.028;9.258;2023-07-08T18:38:17;99537.00;;;26.94;61.92
13800;BME280;6971;50.028;9.258;2023-07-08T18:43:22;99549.69;;;26.63;63.32
13800;BME280;6971;50.028;9.258;2023-07-08T18:48:23;99550.06;;;26.22;65.01
13800;BME280;6971;50.028;9.258;2023-07-08T18:53:23;99561.78;;;25.90;65.74
13800;BME280;6971;50.028;9.258;2023-07-08T18:58:24;99558.34;;;25.41;66.64
13800;BME280;6971;50.028;9.258;2023-07-08T19:03:26;99572.47;;;25.60;62.94
13800;BME280;6971;50.028;9.258;2023-07-08T19:08:27;99574.84;;;25.15;65.86
13800;BME280;6971;50.028;9.258;2023-07-08T19:13:28;99578.63;;;24.89;67.50
13800;BME280;6971;50.028;9.258;2023-07-08T19:18:28;99587.59;;;24.64;69.62
13800;BME280;6971;50.028;9.258;2023-07-08T19:23:28;99583.94;;;24.24;70.46
13800;BME280;6971;50.028;9.258;2023-07-08T19:28:29;99601.06;;;24.31;69.54
13800;BME280;6971;50.028;9.258;2023-07-08T19:33:30;99601.34;;;23.70;69.49
13800;BME280;6971;50.028;9.258;2023-07-08T19:38:33;99603.09;;;23.36;70.05
13800;BME280;6971;50.028;9.258;2023-07-08T19:43:33;99605.44;;;23.04;70.88
13800;BME280;6971;50.028;9.258;2023-07-08T19:48:35;99617.03;;;22.78;72.18
13800;BME280;6971;50.028;9.258;2023-07-08T19:53:35;99621.59;;;22.41;73.27
13800;BME280;6971;50.028;9.258;2023-07-08T19:58:41;99628.91;;;22.13;74.36
13800;BME280;6971;50.028;9.258;2023-07-08T20:03:41;99634.19;;;22.04;75.04
13800;BME280;6971;50.028;9.258;2023-07-08T20:08:41;99632.97;;;21.81;74.42
13800;BME280;6971;50.028;9.258;2023-07-08T20:13:41;99632.72;;;21.74;75.60
13800;BME280;6971;50.028;9.258;2023-07-08T20:18:42;99636.28;;;21.36;76.13
13800;BME280;6971;50.028;9.258;2023-07-08T20:23:43;99629.69;;;21.31;77.10
13800;BME280;6971;50.028;9.258;2023-07-08T20:28:44;99636.25;;;20.98;78.17
13800;BME280;6971;50.028;9.258;2023-07-08T20:33:45;99643.34;;;20.90;78.63
13800;BME280;6971;50.028;9.258;2023-07-08T20:38:45;99646.28;;;21.06;78.24
13800;BME280;6971;50.028;9.258;2023-07-08T20:43:46;99657.19;;;20.65;81.79
13800;BME280;6971;50.028;9.258;2023-07-08T20:48:49;99664.47;;;20.73;80.75
13800;BME280;6971;50.028;9.258;2023-07-08T20:53:51;99685.63;;;20.56;80.75
13800;BME280;6971;50.028;9.258;2023-07-08T20:58:52;99685.94;;;20.63;79.56
13800;BME280;6971;50.028;9.258;2023-07-08T21:03:52;99683.53;;;20.30;84.01
13800;BME280;6971;50.028;9.258;2023-07-08T21:08:53;99694.56;;;19.86;89.17
13800;BME280;6971;50.028;9.258;2023-07-08T21:13:53;99690.91;;;19.97;87.38
13800;BME280;6971;50.028;9.258;2023-07-08T21:18:55;99706.53;;;19.51;90.65
13800;BME280;6971;50.028;9.258;2023-07-08T21:23:56;99700.47;;;19.80;87.42
13800;BME280;6971;50.028;9.258;2023-07-08T21:28:59;99690.41;;;19.62;87.33
13800;BME280;6971;50.028;9.258;2023-07-08T21:34:00;99687.81;;;19.20;89.50
13800;BME280;6971;50.028;9.258;2023-07-08T21:39:27;99676.25;;;19.09;91.75
13800;BME280;6971;50.028;9.258;2023-07-08T21:44:28;99672.19;;;18.94;90.71
13800;BME280;6971;50.028;9.258;2023-07-08T21:49:29;99675.41;;;18.66;91.29
13800;BME280;6971;50.028;9.258;2023-07-08T21:54:29;99677.06;;;19.10;87.75
13800;BME280;6971;50.028;9.258;2023-07-08T21:59:29;99680.09;;;18.74;90.26
13800;BME280;6971;50.028;9.258;2023-07-08T22:04:35;99702.34;;;18.63;89.20
13800;BME280;6971;50.028;9.258;2023-07-08T22:09:36;99689.25;;;18.81;87.69
13800;BME280;6971;50.028;9.258;2023-07-08T22:14:36;99682.09;;;18.60;88.57
13800;BME280;6971;50.028;9.258;2023-07-08T22:19:37;99699.09;;;18.26;91.70
13800;BME280;6971;50.028;9.258;2023-07-08T22:24:37;99686.84;;;18.24;94.10
13800;BME280;6971;50.028;9.258;2023-07-08T22:29:37;99693.56;;;17.95;94.20
13800;BME280;6971;50.028;9.258;2023-07-08T22:34:38;99684.94;;;17.92;95.03
13800;BME280;6971;50.028;9.258;2023-07-08T22:39:38;99684.88;;;17.82;95.04
13800;BME280;6971;50.028;9.258;2023-07-08T22:44:38;99682.44;;;17.67;96.51
13800;BME280;6971;50.028;9.258;2023-07-08T22:49:39;99692.38;;;17.54;99.58
13800;BME280;6971;50.028;9.258;2023-07-08T22:54:41;99687.16;;;17.52;98.21
13800;BME280;6971;50.028;9.258;2023-07-08T22:59:41;99684.75;;;17.15;100.00
13800;BME280;6971;50.028;9.258;2023-07-08T23:04:41;99694.16;;;17.07;100.00
13800;BME280;6971;50.028;9.258;2023-07-08T23:09:41;99696.25;;;17.15;100.00
13800;BME280;6971;50.028;9.258;2023-07-08T23:14:42;99692.94;;;17.00;100.00
13800;BME280;6971;50.028;9.258;2023-07-08T23:19:42;99683.66;;;16.81;100.00
13800;BME280;6971;50.028;9.258;2023-07-08T23:24:42;99690.66;;;16.71;100.00
13800;BME280;6971;50.028;9.258;2023-07-08T23:29:43;99688.72;;;16.62;100.00
13800;BME280;6971;50.028;9.258;2023-07-08T23:34:43;99704.50;;;16.52;100.00
13800;BME280;6971;50.028;9.258;2023-07-08T23:39:43;99696.72;;;16.37;100.00
13800;BME280;6971;50.028;9.258;2023-07-08T23:44:44;99688.16;;;16.45;100.00
13800;BME280;6971;50.028;9.258;2023-07-08T23:49:44;99697.41;;;16.28;100.00
13800;BME280;6971;50.028;9.258;2023-07-08T23:54:45;99694.78;;;16.15;100.00
13800;BME280;6971;50.028;9.258;2023-07-08T23:59:49;99699.69;;;16.08;100.00
